createdAt,value
2022-11-22T00:04:59.110Z,6.44
2022-11-22T00:10:02.308Z,6.10
2022-11-22T00:15:06.238Z,5.83
2022-11-22T00:20:11.980Z,5.62
2022-11-22T00:25:15.166Z,5.42
2022-11-22T00:30:18.236Z,5.27
2022-11-22T00:35:21.168Z,5.10
2022-11-22T00:40:24.085Z,6.24
2022-11-22T00:45:27.055Z,9.84
2022-11-22T00:50:30.387Z,10.52
2022-11-22T00:55:33.357Z,8.79
2022-11-22T01:00:36.341Z,7.74
2022-11-22T01:05:39.857Z,7.02
2022-11-22T01:10:43.019Z,6.46
2022-11-22T01:15:45.955Z,6.01
2022-11-22T01:20:48.908Z,5.62
2022-11-22T01:25:51.819Z,5.29
2022-11-22T01:30:55.227Z,5.03
2022-11-22T01:35:58.649Z,4.84
2022-11-22T01:41:01.896Z,4.70
2022-11-22T01:46:10.048Z,4.59
2022-11-22T01:51:40.573Z,4.49
2022-11-22T01:56:48.685Z,5.96
2022-11-22T02:01:52.533Z,9.57
2022-11-22T02:07:13.457Z,9.58
2022-11-22T02:12:19.416Z,7.89
2022-11-22T02:17:26.316Z,6.97
2022-11-22T02:22:53.933Z,6.28
2022-11-22T02:27:56.937Z,5.71
2022-11-22T02:32:59.868Z,5.31
2022-11-22T02:38:13.325Z,5.00
2022-11-22T02:43:22.185Z,4.76
2022-11-22T02:48:25.207Z,4.58
2022-11-22T02:53:31.361Z,4.44
2022-11-22T02:58:34.483Z,5.42
2022-11-22T03:03:37.554Z,9.04
2022-11-22T03:08:40.581Z,9.92
2022-11-22T03:13:43.783Z,8.19
2022-11-22T03:18:46.857Z,7.12
2022-11-22T03:23:49.756Z,6.40
2022-11-22T03:28:53.111Z,5.83
2022-11-22T03:33:56.683Z,5.38
2022-11-22T03:38:59.659Z,5.02
2022-11-22T03:44:02.623Z,4.74
2022-11-22T03:49:05.711Z,4.55
2022-11-22T03:54:08.683Z,4.42
2022-11-22T03:59:11.725Z,5.64
2022-11-22T04:04:14.992Z,9.30
2022-11-22T04:09:18.073Z,10.38
2022-11-22T04:14:40.228Z,8.69
2022-11-22T04:20:03.288Z,7.53
2022-11-22T04:25:15.255Z,6.78
2022-11-22T04:30:20.734Z,6.22
2022-11-22T04:35:24.090Z,5.77
2022-11-22T04:40:27.055Z,5.42
2022-11-22T04:45:29.992Z,5.14
2022-11-22T04:50:51.622Z,4.91
2022-11-22T04:55:55.028Z,6.19
2022-11-22T05:00:58.097Z,9.68
2022-11-22T05:06:03.013Z,10.44
2022-11-22T05:11:06.191Z,8.66
2022-11-22T05:16:12.134Z,7.58
2022-11-22T05:21:15.193Z,6.87
2022-11-22T05:26:19.099Z,6.27
2022-11-22T05:31:23.658Z,5.78
2022-11-22T05:36:26.759Z,5.37
2022-11-22T05:41:29.779Z,5.04
2022-11-22T05:46:32.713Z,4.78
2022-11-22T05:51:35.647Z,5.78
2022-11-22T05:56:38.710Z,9.37
2022-11-22T06:01:41.802Z,9.82
2022-11-22T06:06:47.187Z,8.08
2022-11-22T06:11:50.152Z,7.06
2022-11-22T06:16:53.401Z,6.40
2022-11-22T06:21:56.318Z,5.90
2022-11-22T06:26:59.321Z,5.48
2022-11-22T06:32:03.952Z,5.12
2022-11-22T06:37:07.452Z,4.85
2022-11-22T06:42:10.441Z,4.64
2022-11-22T06:47:13.504Z,4.49
2022-11-22T06:52:16.642Z,5.69
2022-11-22T06:57:20.710Z,9.25
2022-11-22T07:02:23.715Z,9.83
2022-11-22T07:07:26.953Z,8.13
2022-11-22T07:12:30.067Z,7.13
2022-11-22T07:17:33.227Z,6.47
2022-11-22T07:22:36.202Z,6.01
2022-11-22T07:27:39.155Z,5.60
2022-11-22T07:32:46.628Z,5.28
2022-11-22T07:37:49.650Z,5.03
2022-11-22T07:42:58.169Z,4.87
2022-11-22T07:48:02.347Z,4.75
2022-11-22T07:53:05.359Z,5.91
2022-11-22T07:58:08.367Z,9.62
2022-11-22T08:03:14.413Z,10.52
2022-11-22T08:08:20.501Z,8.88
2022-11-22T08:13:24.451Z,7.95
2022-11-22T08:18:27.606Z,7.35
2022-11-22T08:23:30.553Z,6.91
2022-11-22T08:28:33.648Z,6.56
2022-11-22T08:33:37.001Z,6.30
2022-11-22T08:38:40.183Z,6.13
2022-11-22T08:43:43.340Z,6.03
2022-11-22T08:48:46.989Z,5.96
2022-11-22T08:53:50.291Z,7.19
2022-11-22T08:58:54.445Z,10.93
2022-11-22T09:03:57.586Z,11.27
2022-11-22T09:09:29.961Z,9.77
2022-11-22T09:14:24.129Z,8.95
2022-11-22T09:19:27.280Z,8.47
2022-11-22T09:24:30.272Z,8.10
2022-11-22T09:29:33.497Z,7.83
2022-11-22T09:34:36.690Z,7.62
2022-11-22T09:39:42.585Z,7.48
2022-11-22T09:44:55.372Z,7.42
2022-11-22T09:50:08.411Z,7.45
2022-11-22T09:55:24.148Z,7.49
2022-11-22T10:00:28.779Z,7.55
2022-11-22T10:05:59.430Z,7.61
2022-11-22T10:11:07.101Z,7.71
2022-11-22T10:16:31.625Z,9.17
2022-11-22T10:21:34.812Z,12.92
2022-11-22T10:26:39.526Z,12.55
2022-11-22T10:32:07.644Z,11.37
2022-11-22T10:37:25.165Z,10.68
2022-11-22T10:42:36.654Z,10.21
2022-11-22T10:47:57.579Z,9.81
2022-11-22T10:53:11.171Z,9.43
2022-11-22T10:58:38.358Z,9.12
2022-11-22T11:03:45.291Z,8.88
2022-11-22T11:14:37.877Z,8.58
2022-11-22T11:19:43.694Z,8.61
2022-11-22T11:24:46.825Z,8.54
2022-11-22T11:29:54.175Z,8.45
2022-11-22T11:35:08.000Z,8.42
2022-11-22T11:40:28.518Z,8.41
2022-11-22T11:45:32.945Z,8.41
2022-11-22T11:50:36.241Z,9.81
2022-11-22T11:55:39.259Z,13.17
2022-11-22T12:00:42.842Z,12.45
2022-11-22T12:05:46.020Z,11.31
2022-11-22T12:11:11.692Z,10.74
2022-11-22T12:16:41.427Z,10.36
2022-11-22T12:22:02.202Z,10.11
2022-11-22T12:27:05.841Z,9.90
2022-11-22T12:32:14.735Z,9.81
2022-11-22T12:37:24.081Z,9.79
2022-11-22T12:42:39.808Z,9.76
2022-11-22T12:47:46.672Z,9.76
2022-11-22T12:55:02.331Z,11.24
2022-11-22T13:00:18.294Z,13.83
2022-11-22T13:05:26.355Z,12.60
2022-11-22T13:10:44.967Z,11.81
2022-11-22T13:15:51.618Z,11.26
2022-11-22T13:21:01.913Z,10.82
2022-11-22T13:26:21.948Z,10.42
2022-11-22T13:31:26.370Z,10.12
2022-11-22T13:36:29.857Z,9.89
2022-11-22T13:42:14.127Z,9.68
2022-11-22T13:47:17.694Z,9.49
2022-11-22T13:52:21.153Z,9.36
2022-11-22T13:57:35.140Z,9.23
2022-11-22T14:03:06.627Z,9.06
2022-11-22T14:08:42.622Z,8.88
2022-11-22T14:14:04.804Z,8.68
2022-11-22T14:19:23.443Z,8.51
2022-11-22T14:24:47.603Z,8.32
2022-11-22T14:30:07.458Z,8.13
2022-11-22T14:35:17.706Z,7.95
2022-11-22T14:40:48.816Z,7.79
2022-11-22T14:45:55.620Z,7.64
2022-11-22T14:51:15.500Z,7.53
2022-11-22T14:57:08.520Z,8.92
2022-11-22T15:02:39.021Z,12.66
2022-11-22T15:09:12.682Z,11.81
2022-11-22T15:13:35.152Z,10.36
2022-11-22T15:57:58.936Z,7.17
2022-11-22T16:03:06.983Z,7.05
2022-11-22T16:08:14.474Z,8.36
2022-11-22T16:13:20.965Z,11.92
2022-11-22T16:18:28.702Z,11.70
2022-11-22T16:23:34.292Z,10.23
2022-11-22T16:28:38.437Z,9.43
2022-11-22T16:33:42.312Z,8.88
2022-11-22T16:38:46.948Z,8.45
2022-11-22T16:43:54.959Z,8.08
2022-11-22T16:48:58.694Z,7.75
2022-11-22T16:54:11.517Z,7.48
2022-11-22T16:59:15.686Z,7.25
2022-11-22T17:04:25.573Z,7.08
2022-11-22T17:09:34.601Z,6.95
2022-11-22T17:14:39.748Z,6.86
2022-11-22T17:19:54.900Z,6.79
2022-11-22T17:25:01.321Z,6.75
2022-11-22T17:30:05.917Z,8.17
2022-11-22T17:35:10.828Z,11.81
2022-11-22T17:40:15.506Z,11.93
2022-11-22T17:45:19.398Z,10.41
2022-11-22T17:50:26.547Z,9.54
2022-11-22T17:55:42.660Z,8.89
2022-11-22T18:01:03.564Z,8.30
2022-11-22T18:06:17.841Z,7.84
2022-11-22T18:16:38.737Z,7.20
2022-11-22T18:21:46.004Z,6.98
2022-11-22T18:26:49.947Z,6.79
2022-11-22T18:31:54.466Z,6.64
2022-11-22T18:42:24.574Z,6.39
2022-11-22T18:47:28.047Z,6.29
2022-11-22T18:52:34.583Z,6.21
2022-11-22T18:57:38.087Z,7.49
2022-11-22T19:02:41.622Z,11.13
2022-11-22T19:07:51.933Z,11.20
2022-11-22T19:12:55.737Z,9.59
2022-11-22T19:18:02.461Z,8.70
2022-11-22T19:23:05.910Z,8.06
2022-11-22T19:28:09.492Z,7.55
2022-11-22T19:33:13.415Z,7.12
2022-11-22T19:38:16.918Z,6.79
2022-11-22T19:43:21.418Z,6.54
2022-11-22T19:48:25.337Z,6.39
2022-11-22T19:53:31.821Z,6.24
2022-11-22T19:58:35.747Z,6.09
2022-11-22T20:03:41.351Z,5.95
2022-11-22T20:08:44.835Z,6.78
2022-11-22T20:13:50.188Z,10.47
2022-11-22T20:18:57.694Z,11.05
2022-11-22T20:24:01.242Z,9.36
2022-11-22T20:29:07.284Z,8.40
2022-11-22T20:34:10.522Z,7.73
2022-11-22T20:39:13.587Z,7.19
2022-11-22T20:44:17.620Z,6.72
2022-11-22T20:49:25.189Z,6.34
2022-11-22T20:54:28.773Z,6.03
2022-11-22T20:59:36.502Z,5.80
2022-11-22T21:04:40.488Z,5.62
2022-11-22T21:09:44.230Z,5.47
2022-11-22T21:14:52.528Z,5.33
2022-11-22T21:20:06.589Z,5.22
2022-11-22T21:25:10.304Z,6.35
2022-11-22T21:30:15.031Z,10.02
2022-11-22T21:35:21.601Z,10.77
2022-11-22T21:40:28.220Z,9.04
2022-11-22T21:45:32.481Z,8.01
2022-11-22T21:50:36.612Z,7.33
2022-11-22T21:55:53.209Z,6.77
2022-11-22T22:01:01.691Z,6.30
2022-11-22T22:06:07.794Z,5.91
2022-11-22T22:11:11.985Z,5.59
2022-11-22T22:16:19.263Z,5.36
2022-11-22T22:21:22.799Z,5.15
2022-11-22T22:26:26.480Z,4.97
2022-11-22T22:31:30.041Z,4.84
2022-11-22T22:36:34.856Z,4.74
2022-11-22T22:41:41.309Z,5.97
2022-11-22T22:46:47.990Z,9.72
2022-11-22T22:51:53.352Z,10.27
2022-11-22T22:56:57.422Z,8.54
2022-11-22T23:02:01.095Z,7.53
2022-11-22T23:07:07.907Z,6.83
2022-11-22T23:12:11.912Z,6.25
2022-11-22T23:17:18.736Z,5.80
2022-11-22T23:22:25.932Z,5.42
2022-11-22T23:27:32.740Z,5.12
2022-11-22T23:38:00.235Z,4.72
2022-11-22T23:43:03.893Z,4.59
2022-11-22T23:48:07.753Z,4.50
2022-11-22T23:53:11.432Z,5.71
2022-11-22T23:58:15.115Z,9.43
